sensor_id;sensor_type;location;lat;lon;timestamp;pressure;altitude;pressure_sealevel;temperature;humidity
29215;BME280;16252;49.816;7.964;2024-02-26T00:01:46;98093.22;;;9.90;53.02
29215;BME280;16252;49.816;7.964;2024-02-26T00:04:12;98087.50;;;9.85;52.97
29215;BME280;16252;49.816;7.964;2024-02-26T00:06:40;98123.81;;;9.95;53.16
29215;BME280;16252;49.816;7.964;2024-02-26T00:09:07;98124.44;;;9.89;53.20
29215;BME280;16252;49.816;7.964;2024-02-26T00:11:32;98120.78;;;9.90;53.03
29215;BME280;16252;49.816;7.964;2024-02-26T00:13:57;98115.59;;;9.89;53.27
29215;BME280;16252;49.816;7.964;2024-02-26T00:16:23;98108.78;;;9.94;53.30
29215;BME280;16252;49.816;7.964;2024-02-26T00:18:48;98086.50;;;9.77;53.23
29215;BME280;16252;49.816;7.964;2024-02-26T00:21:14;98075.16;;;9.84;53.27
29215;BME280;16252;49.816;7.964;2024-02-26T00:23:39;98078.34;;;9.87;53.25
29215;BME280;16252;49.816;7.964;2024-02-26T00:26:04;98070.66;;;9.84;53.27
29215;BME280;16252;49.816;7.964;2024-02-26T00:28:30;98082.53;;;9.90;53.24
29215;BME280;16252;49.816;7.964;2024-02-26T00:30:55;98047.59;;;9.75;53.38
29215;BME280;16252;49.816;7.964;2024-02-26T00:33:21;98063.47;;;9.85;53.34
29215;BME280;16252;49.816;7.964;2024-02-26T00:35:46;98074.16;;;9.85;53.38
29215;BME280;16252;49.816;7.964;2024-02-26T00:38:12;98090.97;;;9.77;53.38
29215;BME280;16252;49.816;7.964;2024-02-26T00:40:37;98116.06;;;9.84;53.30
29215;BME280;16252;49.816;7.964;2024-02-26T00:43:02;98109.19;;;9.82;53.44
29215;BME280;16252;49.816;7.964;2024-02-26T00:45:28;98071.63;;;9.75;53.52
29215;BME280;16252;49.816;7.964;2024-02-26T00:47:53;98097.66;;;9.73;53.61
29215;BME280;16252;49.816;7.964;2024-02-26T00:50:19;98099.16;;;9.75;53.48
29215;BME280;16252;49.816;7.964;2024-02-26T00:52:44;98094.66;;;9.76;53.58
29215;BME280;16252;49.816;7.964;2024-02-26T00:55:09;98108.84;;;9.76;53.61
29215;BME280;16252;49.816;7.964;2024-02-26T00:57:35;98114.50;;;9.73;53.70
29215;BME280;16252;49.816;7.964;2024-02-26T01:00:00;98111.19;;;9.80;53.50
29215;BME280;16252;49.816;7.964;2024-02-26T01:02:26;98104.66;;;9.74;53.51
29215;BME280;16252;49.816;7.964;2024-02-26T01:04:51;98103.13;;;9.71;53.33
29215;BME280;16252;49.816;7.964;2024-02-26T01:07:16;98110.81;;;9.74;53.54
29215;BME280;16252;49.816;7.964;2024-02-26T01:09:42;98107.19;;;9.75;53.48
29215;BME280;16252;49.816;7.964;2024-02-26T01:12:07;98092.78;;;9.68;53.76
29215;BME280;16252;49.816;7.964;2024-02-26T01:14:33;98108.00;;;9.76;53.60
29215;BME280;16252;49.816;7.964;2024-02-26T01:16:58;98100.66;;;9.70;53.65
29215;BME280;16252;49.816;7.964;2024-02-26T01:19:23;98106.34;;;9.75;53.83
29215;BME280;16252;49.816;7.964;2024-02-26T01:21:48;98105.97;;;9.70;53.55
29215;BME280;16252;49.816;7.964;2024-02-26T01:24:14;98109.31;;;9.72;53.62
29215;BME280;16252;49.816;7.964;2024-02-26T01:26:40;98111.97;;;9.72;53.70
29215;BME280;16252;49.816;7.964;2024-02-26T01:29:05;98119.84;;;9.73;53.64
29215;BME280;16252;49.816;7.964;2024-02-26T01:31:31;98111.31;;;9.70;53.57
29215;BME280;16252;49.816;7.964;2024-02-26T01:33:56;98105.31;;;9.68;53.66
29215;BME280;16252;49.816;7.964;2024-02-26T01:36:21;98112.63;;;9.66;53.71
29215;BME280;16252;49.816;7.964;2024-02-26T01:38:47;98122.16;;;9.68;53.73
29215;BME280;16252;49.816;7.964;2024-02-26T01:41:13;98115.66;;;9.71;53.79
29215;BME280;16252;49.816;7.964;2024-02-26T01:43:39;98129.53;;;9.74;53.76
29215;BME280;16252;49.816;7.964;2024-02-26T01:46:04;98133.72;;;9.77;53.86
29215;BME280;16252;49.816;7.964;2024-02-26T01:48:30;98123.66;;;9.71;53.92
29215;BME280;16252;49.816;7.964;2024-02-26T01:50:55;98127.16;;;9.71;53.79
29215;BME280;16252;49.816;7.964;2024-02-26T01:53:20;98134.41;;;9.79;53.92
29215;BME280;16252;49.816;7.964;2024-02-26T01:55:46;98131.91;;;9.77;54.03
29215;BME280;16252;49.816;7.964;2024-02-26T01:58:11;98140.75;;;9.78;54.17
29215;BME280;16252;49.816;7.964;2024-02-26T02:00:37;98155.06;;;9.77;54.11
29215;BME280;16252;49.816;7.964;2024-02-26T02:03:04;98149.53;;;9.70;54.48
29215;BME280;16252;49.816;7.964;2024-02-26T02:05:30;98143.38;;;9.70;54.90
29215;BME280;16252;49.816;7.964;2024-02-26T02:07:56;98153.72;;;9.73;54.76
29215;BME280;16252;49.816;7.964;2024-02-26T02:10:21;98135.66;;;9.67;54.98
29215;BME280;16252;49.816;7.964;2024-02-26T02:12:50;98136.00;;;9.72;55.27
29215;BME280;16252;49.816;7.964;2024-02-26T02:15:16;98151.25;;;9.80;55.29
29215;BME280;16252;49.816;7.964;2024-02-26T02:17:42;98146.56;;;9.73;55.23
29215;BME280;16252;49.816;7.964;2024-02-26T02:20:09;98140.19;;;9.74;55.64
29215;BME280;16252;49.816;7.964;2024-02-26T02:22:34;98145.72;;;9.73;55.30
29215;BME280;16252;49.816;7.964;2024-02-26T02:24:59;98157.13;;;9.83;55.52
29215;BME280;16252;49.816;7.964;2024-02-26T02:27:25;98148.22;;;9.74;55.69
29215;BME280;16252;49.816;7.964;2024-02-26T02:29:51;98167.13;;;9.81;55.86
29215;BME280;16252;49.816;7.964;2024-02-26T02:32:19;98156.59;;;9.80;55.75
29215;BME280;16252;49.816;7.964;2024-02-26T02:34:45;98159.44;;;9.78;55.83
29215;BME280;16252;49.816;7.964;2024-02-26T02:37:10;98161.66;;;9.83;55.74
29215;BME280;16252;49.816;7.964;2024-02-26T02:39:36;98150.97;;;9.83;56.24
29215;BME280;16252;49.816;7.964;2024-02-26T02:42:01;98152.75;;;9.82;56.19
29215;BME280;16252;49.816;7.964;2024-02-26T02:44:27;98142.59;;;9.77;56.17
29215;BME280;16252;49.816;7.964;2024-02-26T02:46:52;98146.78;;;9.80;56.35
29215;BME280;16252;49.816;7.964;2024-02-26T02:49:18;98134.03;;;9.74;56.23
29215;BME280;16252;49.816;7.964;2024-02-26T02:51:43;98139.03;;;9.77;56.60
29215;BME280;16252;49.816;7.964;2024-02-26T02:54:09;98143.41;;;9.78;56.76
29215;BME280;16252;49.816;7.964;2024-02-26T02:56:34;98148.75;;;9.78;56.62
29215;BME280;16252;49.816;7.964;2024-02-26T02:58:59;98136.00;;;9.72;56.65
29215;BME280;16252;49.816;7.964;2024-02-26T03:01:24;98103.19;;;9.53;56.78
29215;BME280;16252;49.816;7.964;2024-02-26T03:03:50;98115.44;;;9.64;57.09
29215;BME280;16252;49.816;7.964;2024-02-26T03:06:16;98144.03;;;9.72;57.10
29215;BME280;16252;49.816;7.964;2024-02-26T03:08:41;98128.31;;;9.69;57.05
29215;BME280;16252;49.816;7.964;2024-02-26T03:11:07;98139.38;;;9.74;57.13
29215;BME280;16252;49.816;7.964;2024-02-26T03:13:32;98120.78;;;9.64;57.07
29215;BME280;16252;49.816;7.964;2024-02-26T03:15:57;98132.00;;;9.68;56.88
29215;BME280;16252;49.816;7.964;2024-02-26T03:18:23;98126.19;;;9.72;57.52
29215;BME280;16252;49.816;7.964;2024-02-26T03:20:49;98114.25;;;9.59;57.39
29215;BME280;16252;49.816;7.964;2024-02-26T03:23:14;98137.72;;;9.73;57.29
29215;BME280;16252;49.816;7.964;2024-02-26T03:25:42;98132.00;;;9.68;57.51
29215;BME280;16252;49.816;7.964;2024-02-26T03:28:08;98141.72;;;9.77;57.40
29215;BME280;16252;49.816;7.964;2024-02-26T03:30:33;98142.59;;;9.77;57.47
29215;BME280;16252;49.816;7.964;2024-02-26T03:32:59;98126.81;;;9.66;57.62
29215;BME280;16252;49.816;7.964;2024-02-26T03:35:24;98123.31;;;9.66;57.40
29215;BME280;16252;49.816;7.964;2024-02-26T03:37:50;98136.56;;;9.75;57.34
29215;BME280;16252;49.816;7.964;2024-02-26T03:40:16;98131.22;;;9.75;57.50
29215;BME280;16252;49.816;7.964;2024-02-26T03:42:43;98119.34;;;9.70;57.81
29215;BME280;16252;49.816;7.964;2024-02-26T03:45:09;98118.78;;;9.66;57.72
29215;BME280;16252;49.816;7.964;2024-02-26T03:47:34;98133.06;;;9.75;57.64
29215;BME280;16252;49.816;7.964;2024-02-26T03:49:59;98120.84;;;9.72;57.81
29215;BME280;16252;49.816;7.964;2024-02-26T03:52:25;98127.06;;;9.81;57.79
29215;BME280;16252;49.816;7.964;2024-02-26T03:54:50;98119.69;;;9.75;57.86
29215;BME280;16252;49.816;7.964;2024-02-26T03:57:15;98117.31;;;9.72;57.82
29215;BME280;16252;49.816;7.964;2024-02-26T03:59:41;98123.88;;;9.77;58.00
29215;BME280;16252;49.816;7.964;2024-02-26T04:02:06;98116.66;;;9.70;57.88
29215;BME280;16252;49.816;7.964;2024-02-26T04:04:34;98119.53;;;9.76;58.12
29215;BME280;16252;49.816;7.964;2024-02-26T04:06:59;98129.06;;;9.79;57.86
29215;BME280;16252;49.816;7.964;2024-02-26T04:09:24;98119.84;;;9.73;57.88
29215;BME280;16252;49.816;7.964;2024-02-26T04:11:50;98115.34;;;9.74;58.32
29215;BME280;16252;49.816;7.964;2024-02-26T04:14:15;98117.69;;;9.77;58.23
29215;BME280;16252;49.816;7.964;2024-02-26T04:16:40;98123.03;;;9.77;58.25
29215;BME280;16252;49.816;7.964;2024-02-26T04:19:05;98118.69;;;9.76;58.31
29215;BME280;16252;49.816;7.964;2024-02-26T04:21:32;98112.16;;;9.70;58.56
29215;BME280;16252;49.816;7.964;2024-02-26T04:23:57;98125.41;;;9.80;58.62
29215;BME280;16252;49.816;7.964;2024-02-26T04:26:26;98112.66;;;9.74;58.67
29215;BME280;16252;49.816;7.964;2024-02-26T04:28:51;98125.69;;;9.77;58.66
29215;BME280;16252;49.816;7.964;2024-02-26T04:31:16;98116.84;;;9.76;58.59
29215;BME280;16252;49.816;7.964;2024-02-26T04:33:41;98109.63;;;9.69;58.72
29215;BME280;16252;49.816;7.964;2024-02-26T04:36:14;98137.44;;;9.84;59.25
29215;BME280;16252;49.816;7.964;2024-02-26T04:38:43;98112.63;;;9.66;58.94
29215;BME280;16252;49.816;7.964;2024-02-26T04:41:09;98123.66;;;9.71;58.78
29215;BME280;16252;49.816;7.964;2024-02-26T04:43:34;98121.63;;;9.65;59.25
29215;BME280;16252;49.816;7.964;2024-02-26T04:45:59;98130.63;;;9.64;58.97
29215;BME280;16252;49.816;7.964;2024-02-26T04:48:24;98129.78;;;9.63;59.16
29215;BME280;16252;49.816;7.964;2024-02-26T04:50:50;98077.66;;;9.25;59.38
29215;BME280;16252;49.816;7.964;2024-02-26T04:53:15;98137.66;;;9.65;59.35
29215;BME280;16252;49.816;7.964;2024-02-26T04:55:40;98085.84;;;9.31;59.50
29215;BME280;16252;49.816;7.964;2024-02-26T04:58:05;98075.31;;;9.22;59.41
29215;BME280;16252;49.816;7.964;2024-02-26T05:00:31;98091.88;;;9.33;59.61
29215;BME280;16252;49.816;7.964;2024-02-26T05:02:56;98097.22;;;9.33;59.88
29215;BME280;16252;49.816;7.964;2024-02-26T05:05:21;98120.13;;;9.44;59.76
29215;BME280;16252;49.816;7.964;2024-02-26T05:07:47;98109.03;;;9.31;59.87
29215;BME280;16252;49.816;7.964;2024-02-26T05:10:12;98138.91;;;9.52;59.96
29215;BME280;16252;49.816;7.964;2024-02-26T05:12:37;98139.59;;;9.54;59.97
29215;BME280;16252;49.816;7.964;2024-02-26T05:17:30;98141.84;;;9.49;60.17
29215;BME280;16252;49.816;7.964;2024-02-26T05:19:55;98131.44;;;9.38;60.25
29215;BME280;16252;49.816;7.964;2024-02-26T05:22:21;98115.75;;;9.35;60.26
29215;BME280;16252;49.816;7.964;2024-02-26T05:24:46;98123.28;;;9.40;60.18
29215;BME280;16252;49.816;7.964;2024-02-26T05:27:11;98114.06;;;9.34;60.21
29215;BME280;16252;49.816;7.964;2024-02-26T05:29:37;98122.81;;;9.44;60.34
29215;BME280;16252;49.816;7.964;2024-02-26T05:32:03;98138.69;;;9.46;60.63
29215;BME280;16252;49.816;7.964;2024-02-26T05:34:28;98124.13;;;9.40;60.42
29215;BME280;16252;49.816;7.964;2024-02-26T05:36:55;98126.63;;;9.42;60.78
29215;BME280;16252;49.816;7.964;2024-02-26T05:39:20;98116.34;;;9.29;60.88
29215;BME280;16252;49.816;7.964;2024-02-26T05:41:45;98117.34;;;9.28;60.90
29215;BME280;16252;49.816;7.964;2024-02-26T05:44:11;98125.38;;;9.28;61.09
29215;BME280;16252;49.816;7.964;2024-02-26T05:46:36;98140.09;;;9.32;61.13
29215;BME280;16252;49.816;7.964;2024-02-26T05:49:02;98135.22;;;9.27;60.98
29215;BME280;16252;49.816;7.964;2024-02-26T05:51:27;98141.88;;;9.31;60.99
29215;BME280;16252;49.816;7.964;2024-02-26T05:53:53;98137.88;;;9.27;60.97
29215;BME280;16252;49.816;7.964;2024-02-26T05:56:24;98151.72;;;9.31;61.93
29215;BME280;16252;49.816;7.964;2024-02-26T05:58:50;98159.59;;;9.32;61.47
29215;BME280;16252;49.816;7.964;2024-02-26T06:01:16;98153.88;;;9.27;61.77
29215;BME280;16252;49.816;7.964;2024-02-26T06:03:44;98130.78;;;9.18;61.41
29215;BME280;16252;49.816;7.964;2024-02-26T06:06:10;98148.88;;;9.24;61.55
29215;BME280;16252;49.816;7.964;2024-02-26T06:08:36;98145.28;;;9.16;61.60
29215;BME280;16252;49.816;7.964;2024-02-26T06:11:05;98136.94;;;9.19;62.00
29215;BME280;16252;49.816;7.964;2024-02-26T06:13:31;98161.34;;;9.24;61.54
29215;BME280;16252;49.816;7.964;2024-02-26T06:15:56;98174.91;;;9.30;61.69
29215;BME280;16252;49.816;7.964;2024-02-26T06:18:22;98172.00;;;9.24;61.65
29215;BME280;16252;49.816;7.964;2024-02-26T06:20:47;98172.88;;;9.24;61.71
29215;BME280;16252;49.816;7.964;2024-02-26T06:23:13;98176.75;;;9.30;61.66
29215;BME280;16252;49.816;7.964;2024-02-26T06:25:38;98173.53;;;9.26;61.91
29215;BME280;16252;49.816;7.964;2024-02-26T06:28:04;98188.50;;;9.37;61.86
29215;BME280;16252;49.816;7.964;2024-02-26T06:30:29;98186.44;;;9.31;61.71
29215;BME280;16252;49.816;7.964;2024-02-26T06:32:55;98186.44;;;9.31;61.74
29215;BME280;16252;49.816;7.964;2024-02-26T06:35:20;98189.28;;;9.29;61.81
29215;BME280;16252;49.816;7.964;2024-02-26T06:37:45;98213.94;;;9.49;61.85
29215;BME280;16252;49.816;7.964;2024-02-26T06:40:11;98194.13;;;9.34;61.97
29215;BME280;16252;49.816;7.964;2024-02-26T06:42:36;98212.03;;;9.42;61.89
29215;BME280;16252;49.816;7.964;2024-02-26T06:45:02;98224.63;;;9.49;61.99
29215;BME280;16252;49.816;7.964;2024-02-26T06:47:29;98215.94;;;9.47;61.60
29215;BME280;16252;49.816;7.964;2024-02-26T06:49:54;98208.72;;;9.40;61.90
29215;BME280;16252;49.816;7.964;2024-02-26T06:52:23;98230.66;;;9.51;61.97
29215;BME280;16252;49.816;7.964;2024-02-26T06:54:48;98233.31;;;9.51;61.99
29215;BME280;16252;49.816;7.964;2024-02-26T06:57:16;98230.81;;;9.50;61.92
29215;BME280;16252;49.816;7.964;2024-02-26T06:59:41;98222.56;;;9.43;61.88
29215;BME280;16252;49.816;7.964;2024-02-26T07:02:10;98220.34;;;9.39;61.93
29215;BME280;16252;49.816;7.964;2024-02-26T07:04:36;98242.00;;;9.53;62.22
29215;BME280;16252;49.816;7.964;2024-02-26T07:07:02;98254.91;;;9.58;61.94
29215;BME280;16252;49.816;7.964;2024-02-26T07:09:27;98242.31;;;9.50;62.33
29215;BME280;16252;49.816;7.964;2024-02-26T07:11:52;98251.53;;;9.56;62.16
29215;BME280;16252;49.816;7.964;2024-02-26T07:14:18;98238.81;;;9.50;62.14
29215;BME280;16252;49.816;7.964;2024-02-26T07:16:43;98255.75;;;9.59;62.34
29215;BME280;16252;49.816;7.964;2024-02-26T07:19:08;98248.75;;;9.58;62.17
29215;BME280;16252;49.816;7.964;2024-02-26T07:21:33;98253.06;;;9.59;62.13
29215;BME280;16252;49.816;7.964;2024-02-26T07:23:59;98264.50;;;9.69;62.11
29215;BME280;16252;49.816;7.964;2024-02-26T07:26:24;98264.19;;;9.72;62.27
29215;BME280;16252;49.816;7.964;2024-02-26T07:28:51;98248.28;;;9.62;62.43
29215;BME280;16252;49.816;7.964;2024-02-26T07:31:17;98263.91;;;9.75;62.43
29215;BME280;16252;49.816;7.964;2024-02-26T07:33:43;98263.03;;;9.74;62.39
29215;BME280;16252;49.816;7.964;2024-02-26T07:36:08;98223.19;;;9.55;62.25
29215;BME280;16252;49.816;7.964;2024-02-26T07:38:33;98261.00;;;9.68;62.36
29215;BME280;16252;49.816;7.964;2024-02-26T07:40:59;98256.66;;;9.67;62.26
29215;BME280;16252;49.816;7.964;2024-02-26T07:43:24;98273.34;;;9.69;62.36
29215;BME280;16252;49.816;7.964;2024-02-26T07:45:49;98263.53;;;9.70;62.29
29215;BME280;16252;49.816;7.964;2024-02-26T07:48:14;98280.91;;;9.74;62.33
29215;BME280;16252;49.816;7.964;2024-02-26T07:50:40;98263.16;;;9.65;62.35
29215;BME280;16252;49.816;7.964;2024-02-26T07:53:06;98265.13;;;9.63;62.41
29215;BME280;16252;49.816;7.964;2024-02-26T07:55:31;98249.72;;;9.57;62.50
29215;BME280;16252;49.816;7.964;2024-02-26T07:57:56;98286.94;;;9.76;62.64
29215;BME280;16252;49.816;7.964;2024-02-26T08:00:21;98280.75;;;9.75;62.56
29215;BME280;16252;49.816;7.964;2024-02-26T08:02:47;98276.13;;;9.77;62.70
29215;BME280;16252;49.816;7.964;2024-02-26T08:05:12;98288.16;;;9.82;62.64
29215;BME280;16252;49.816;7.964;2024-02-26T08:07:37;98286.84;;;9.86;62.67
29215;BME280;16252;49.816;7.964;2024-02-26T08:10:03;98284.50;;;9.83;62.55
29215;BME280;16252;49.816;7.964;2024-02-26T08:12:29;98292.72;;;9.89;62.80
29215;BME280;16252;49.816;7.964;2024-02-26T08:14:54;98283.50;;;9.84;62.64
29215;BME280;16252;49.816;7.964;2024-02-26T08:17:20;98296.91;;;9.92;62.66
29215;BME280;16252;49.816;7.964;2024-02-26T08:19:45;98295.38;;;9.89;62.84
29215;BME280;16252;49.816;7.964;2024-02-26T08:22:11;98271.28;;;9.81;62.64
29215;BME280;16252;49.816;7.964;2024-02-26T08:24:44;98301.34;;;10.01;62.66
29215;BME280;16252;49.816;7.964;2024-02-26T08:27:09;98287.91;;;9.93;62.85
29215;BME280;16252;49.816;7.964;2024-02-26T08:29:35;98275.47;;;9.84;62.97
29215;BME280;16252;49.816;7.964;2024-02-26T08:32:00;98310.50;;;9.98;62.86
29215;BME280;16252;49.816;7.964;2024-02-26T08:34:26;98313.88;;;10.01;62.97
29215;BME280;16252;49.816;7.964;2024-02-26T08:36:51;98323.22;;;10.05;63.04
29215;BME280;16252;49.816;7.964;2024-02-26T08:39:17;98321.25;;;10.07;63.11
29215;BME280;16252;49.816;7.964;2024-02-26T08:41:43;98311.66;;;9.96;63.28
29215;BME280;16252;49.816;7.964;2024-02-26T08:44:09;98291.75;;;9.90;63.13
29215;BME280;16252;49.816;7.964;2024-02-26T08:46:34;98311.56;;;10.06;63.42
29215;BME280;16252;49.816;7.964;2024-02-26T08:48:59;98305.69;;;10.02;63.36
29215;BME280;16252;49.816;7.964;2024-02-26T08:51:25;98309.97;;;10.13;63.46
29215;BME280;16252;49.816;7.964;2024-02-26T08:53:50;98317.66;;;10.16;63.56
29215;BME280;16252;49.816;7.964;2024-02-26T08:56:16;98307.03;;;10.24;63.89
29215;BME280;16252;49.816;7.964;2024-02-26T08:58:43;98272.06;;;10.17;64.14
29215;BME280;16252;49.816;7.964;2024-02-26T09:01:08;98274.94;;;10.24;64.30
29215;BME280;16252;49.816;7.964;2024-02-26T09:03:33;98304.34;;;10.42;63.96
29215;BME280;16252;49.816;7.964;2024-02-26T09:05:59;98314.56;;;10.47;63.93
29215;BME280;16252;49.816;7.964;2024-02-26T09:08:24;98327.66;;;10.58;63.90
29215;BME280;16252;49.816;7.964;2024-02-26T09:10:49;98324.13;;;10.57;63.93
29215;BME280;16252;49.816;7.964;2024-02-26T09:13:15;98314.97;;;10.60;63.76
29215;BME280;16252;49.816;7.964;2024-02-26T09:15:40;98335.09;;;10.72;63.53
29215;BME280;16252;49.816;7.964;2024-02-26T09:18:05;98314.63;;;10.63;63.54
29215;BME280;16252;49.816;7.964;2024-02-26T09:20:31;98323.72;;;10.70;63.42
29215;BME280;16252;49.816;7.964;2024-02-26T09:22:56;98329.78;;;10.80;63.00
29215;BME280;16252;49.816;7.964;2024-02-26T09:25:21;98317.91;;;10.75;63.38
29215;BME280;16252;49.816;7.964;2024-02-26T09:27:47;98319.09;;;10.80;63.29
29215;BME280;16252;49.816;7.964;2024-02-26T09:30:13;98325.44;;;10.79;63.24
29215;BME280;16252;49.816;7.964;2024-02-26T09:32:39;98324.06;;;10.75;63.36
29215;BME280;16252;49.816;7.964;2024-02-26T09:35:08;98329.63;;;10.82;63.37
29215;BME280;16252;49.816;7.964;2024-02-26T09:37:33;98321.94;;;10.79;63.16
29215;BME280;16252;49.816;7.964;2024-02-26T09:39:59;98340.00;;;10.85;63.12
29215;BME280;16252;49.816;7.964;2024-02-26T09:42:26;98341.53;;;10.88;63.22
29215;BME280;16252;49.816;7.964;2024-02-26T09:44:54;98348.41;;;10.90;63.50
29215;BME280;16252;49.816;7.964;2024-02-26T09:47:23;98348.41;;;10.90;63.31
29215;BME280;16252;49.816;7.964;2024-02-26T09:49:51;98345.50;;;10.83;63.44
29215;BME280;16252;49.816;7.964;2024-02-26T09:52:19;98343.47;;;10.77;63.35
29215;BME280;16252;49.816;7.964;2024-02-26T09:54:47;98367.50;;;10.95;63.46
29215;BME280;16252;49.816;7.964;2024-02-26T09:57:13;98372.00;;;10.95;63.30
29215;BME280;16252;49.816;7.964;2024-02-26T09:59:42;98359.56;;;10.85;63.02
29215;BME280;16252;49.816;7.964;2024-02-26T10:02:14;98367.63;;;10.94;63.51
29215;BME280;16252;49.816;7.964;2024-02-26T10:04:41;98373.16;;;10.92;63.25
29215;BME280;16252;49.816;7.964;2024-02-26T10:07:11;98357.06;;;10.84;63.72
29215;BME280;16252;49.816;7.964;2024-02-26T10:09:36;98359.44;;;10.87;63.29
29215;BME280;16252;49.816;7.964;2024-02-26T10:12:03;98359.44;;;10.87;63.49
29215;BME280;16252;49.816;7.964;2024-02-26T10:14:28;98361.63;;;10.92;63.35
29215;BME280;16252;49.816;7.964;2024-02-26T10:16:54;98371.47;;;10.91;63.27
29215;BME280;16252;49.816;7.964;2024-02-26T10:19:29;98390.78;;;11.03;63.58
29215;BME280;16252;49.816;7.964;2024-02-26T10:21:59;98378.03;;;10.97;63.92
29215;BME280;16252;49.816;7.964;2024-02-26T10:24:26;98378.34;;;10.94;63.27
29215;BME280;16252;49.816;7.964;2024-02-26T10:26:52;98371.88;;;10.96;63.38
29215;BME280;16252;49.816;7.964;2024-02-26T10:29:18;98362.94;;;10.88;63.33
29215;BME280;16252;49.816;7.964;2024-02-26T10:31:44;98389.94;;;11.02;63.40
29215;BME280;16252;49.816;7.964;2024-02-26T10:34:10;98344.00;;;10.81;63.34
29215;BME280;16252;49.816;7.964;2024-02-26T10:36:36;98399.34;;;11.06;63.49
29215;BME280;16252;49.816;7.964;2024-02-26T10:39:04;98386.94;;;11.05;64.00
29215;BME280;16252;49.816;7.964;2024-02-26T10:41:30;98398.69;;;11.13;63.64
29215;BME280;16252;49.816;7.964;2024-02-26T10:43:55;98408.94;;;11.17;63.71
29215;BME280;16252;49.816;7.964;2024-02-26T10:46:20;98395.19;;;11.12;63.63
29215;BME280;16252;49.816;7.964;2024-02-26T10:48:50;98392.19;;;11.15;63.71
29215;BME280;16252;49.816;7.964;2024-02-26T10:51:16;98410.03;;;11.41;62.79
29215;BME280;16252;49.816;7.964;2024-02-26T10:53:45;98408.97;;;11.25;63.50
29215;BME280;16252;49.816;7.964;2024-02-26T10:56:11;98395.69;;;11.16;63.56
29215;BME280;16252;49.816;7.964;2024-02-26T10:58:37;98402.53;;;11.10;63.31
29215;BME280;16252;49.816;7.964;2024-02-26T11:01:03;98424.50;;;11.22;63.16
29215;BME280;16252;49.816;7.964;2024-02-26T11:03:29;98424.66;;;11.20;62.99
29215;BME280;16252;49.816;7.964;2024-02-26T11:05:58;98430.00;;;11.20;62.89
29215;BME280;16252;49.816;7.964;2024-02-26T11:08:25;98425.00;;;11.17;63.14
29215;BME280;16252;49.816;7.964;2024-02-26T11:10:53;98430.53;;;11.24;63.31
29215;BME280;16252;49.816;7.964;2024-02-26T11:13:21;98410.91;;;11.15;63.30
29215;BME280;16252;49.816;7.964;2024-02-26T11:15:47;98425.16;;;11.24;63.26
29215;BME280;16252;49.816;7.964;2024-02-26T11:18:14;98425.84;;;11.26;63.48
29215;BME280;16252;49.816;7.964;2024-02-26T11:20:41;98408.25;;;11.15;63.78
29215;BME280;16252;49.816;7.964;2024-02-26T11:23:07;98416.47;;;11.22;63.47
29215;BME280;16252;49.816;7.964;2024-02-26T11:25:34;98426.91;;;11.33;63.52
29215;BME280;16252;49.816;7.964;2024-02-26T11:28:09;98427.25;;;11.38;63.27
29215;BME280;16252;49.816;7.964;2024-02-26T11:30:46;98423.56;;;11.39;63.44
29215;BME280;16252;49.816;7.964;2024-02-26T11:33:12;98427.75;;;11.42;63.05
29215;BME280;16252;49.816;7.964;2024-02-26T11:35:38;98438.69;;;11.48;63.29
29215;BME280;16252;49.816;7.964;2024-02-26T11:38:04;98442.72;;;11.53;63.19
29215;BME280;16252;49.816;7.964;2024-02-26T11:40:32;98462.19;;;11.63;63.11
29215;BME280;16252;49.816;7.964;2024-02-26T11:42:57;98455.66;;;11.65;63.01
29215;BME280;16252;49.816;7.964;2024-02-26T11:48:20;98439.59;;;11.65;62.72
29215;BME280;16252;49.816;7.964;2024-02-26T11:50:51;98457.06;;;11.78;62.60
29215;BME280;16252;49.816;7.964;2024-02-26T11:53:26;98459.22;;;11.82;62.64
29215;BME280;16252;49.816;7.964;2024-02-26T11:58:43;98446.34;;;11.78;62.52
29215;BME280;16252;49.816;7.964;2024-02-26T12:01:47;98435.63;;;11.86;62.90
29215;BME280;16252;49.816;7.964;2024-02-26T12:04:17;98452.59;;;11.95;62.69
29215;BME280;16252;49.816;7.964;2024-02-26T12:07:03;98432.28;;;11.84;62.51
29215;BME280;16252;49.816;7.964;2024-02-26T12:09:32;98453.97;;;11.99;62.17
29215;BME280;16252;49.816;7.964;2024-02-26T12:11:57;98437.47;;;11.85;62.26
29215;BME280;16252;49.816;7.964;2024-02-26T12:14:26;98443.03;;;11.92;62.35
29215;BME280;16252;49.816;7.964;2024-02-26T12:16:52;98447.72;;;11.90;62.29
29215;BME280;16252;49.816;7.964;2024-02-26T12:19:18;98471.41;;;12.03;62.11
29215;BME280;16252;49.816;7.964;2024-02-26T12:21:46;98461.16;;;11.98;62.27
29215;BME280;16252;49.816;7.964;2024-02-26T12:24:17;98465.53;;;12.07;62.34
29215;BME280;16252;49.816;7.964;2024-02-26T12:26:43;98454.63;;;12.01;62.21
29215;BME280;16252;49.816;7.964;2024-02-26T12:29:08;98439.06;;;12.04;62.50
29215;BME280;16252;49.816;7.964;2024-02-26T12:31:35;98454.16;;;12.13;62.53
29215;BME280;16252;49.816;7.964;2024-02-26T12:34:04;98454.16;;;12.13;62.18
29215;BME280;16252;49.816;7.964;2024-02-26T12:36:29;98465.56;;;12.24;62.08
29215;BME280;16252;49.816;7.964;2024-02-26T12:38:55;98479.81;;;12.32;61.83
29215;BME280;16252;49.816;7.964;2024-02-26T12:41:21;98471.09;;;12.30;61.94
29215;BME280;16252;49.816;7.964;2024-02-26T12:43:47;98446.47;;;12.19;61.83
29215;BME280;16252;49.816;7.964;2024-02-26T12:46:12;98470.44;;;12.36;61.78
29215;BME280;16252;49.816;7.964;2024-02-26T12:48:46;98445.13;;;12.31;61.72
29215;BME280;16252;49.816;7.964;2024-02-26T12:51:12;98470.28;;;12.46;61.95
29215;BME280;16252;49.816;7.964;2024-02-26T12:53:39;98480.53;;;12.51;61.70
29215;BME280;16252;49.816;7.964;2024-02-26T12:56:07;98482.34;;;12.50;61.68
29215;BME280;16252;49.816;7.964;2024-02-26T12:58:33;98494.63;;;12.61;61.60
29215;BME280;16252;49.816;7.964;2024-02-26T13:00:59;98466.78;;;12.54;61.63
29215;BME280;16252;49.816;7.964;2024-02-26T13:03:24;98468.09;;;12.58;61.66
29215;BME280;16252;49.816;7.964;2024-02-26T13:05:50;98451.84;;;12.51;61.87
29215;BME280;16252;49.816;7.964;2024-02-26T13:08:20;98470.81;;;12.74;61.87
29215;BME280;16252;49.816;7.964;2024-02-26T13:10:45;98484.38;;;12.97;61.14